^^
Lisbon, NH - Weather Station Historical Data
Daily Summary for June 29, 2021 Units:  English    Metric   Both
Daily Weekly Monthly Yearly
  High: Low: Average:
Temperature: 91.1 °F 69.8 °F 79.6 °F
Dew Point: 77.7 °F 65.9 °F 71.9 °F
Humidity: 100% 44.2% 81%
Wind Speed: 2.6mph 0mph 0.4mph
Wind Gust: 10mph - -
Wind- - SW
Pressure: 30.09 in 29.98 in -
Precipitation: 0.00 in    
 
 
Tabular Data for June 29, 2021
Time Temperature Dew Point Pressure Wind Wind Speed Wind Gust Humidity Rainfall Rate (Hourly) solar
00:04 73.7 °F 73.7 °F 30.03 in Calm     100% 0.00 in 0 W/m2
00:09 73.5 °F 73.5 °F 30.03 in Calm     100% 0.00 in 0 W/m2
00:14 73.5 °F 73.5 °F 30.04 in Calm     100% 0.00 in 0 W/m2
00:19 73.3 °F 73.3 °F 30.04 in Calm     100% 0.00 in 0 W/m2
00:24 73.2 °F 73.2 °F 30.04 in Calm     100% 0.00 in 0 W/m2
00:29 73.1 °F 73.1 °F 30.04 in Calm     100% 0.00 in 0 W/m2
00:34 73 °F 73 °F 30.04 in Calm     100% 0.00 in 0 W/m2
00:39 72.8 °F 72.8 °F 30.04 in Calm     100% 0.00 in 0 W/m2
00:44 72.8 °F 72.8 °F 30.04 in Calm     100% 0.00 in 0 W/m2
00:49 72.7 °F 72.7 °F 30.04 in Calm     100% 0.00 in 0 W/m2
00:54 72.7 °F 72.7 °F 30.04 in Calm     100% 0.00 in 0 W/m2
00:59 72.5 °F 72.5 °F 30.05 in Calm     100% 0.00 in 0 W/m2
01:04 72.5 °F 72.5 °F 30.05 in Calm     100% 0.00 in 0 W/m2
01:09 72.5 °F 72.5 °F 30.05 in Calm     100% 0.00 in 0 W/m2
01:14 72.5 °F 72.5 °F 30.05 in Calm     100% 0.00 in 0 W/m2
01:19 72.5 °F 72.5 °F 30.05 in Calm     100% 0.00 in 0 W/m2
01:24 72.5 °F 72.5 °F 30.05 in Calm     100% 0.00 in 0 W/m2
01:29 72.5 °F 72.5 °F 30.05 in Calm     100% 0.00 in 0 W/m2
01:34 72.3 °F 72.3 °F 30.05 in Calm     100% 0.00 in 0 W/m2
01:39 72.2 °F 72.2 °F 30.05 in Calm     100% 0.00 in 0 W/m2
01:44 72.1 °F 72.1 °F 30.05 in Calm     100% 0.00 in 0 W/m2
01:49 72.1 °F 72.1 °F 30.05 in Calm     100% 0.00 in 0 W/m2
01:54 72 °F 72 °F 30.05 in Calm     100% 0.00 in 0 W/m2
01:59 71.8 °F 71.8 °F 30.05 in Calm     100% 0.00 in 0 W/m2
02:04 71.6 °F 71.6 °F 30.05 in Calm     100% 0.00 in 0 W/m2
02:09 71.6 °F 71.6 °F 30.05 in Calm     100% 0.00 in 0 W/m2
02:14 71.5 °F 71.5 °F 30.05 in Calm     100% 0.00 in 0 W/m2
02:19 71.3 °F 71.3 °F 30.05 in Calm     100% 0.00 in 0 W/m2
02:24 71.3 °F 71.3 °F 30.05 in Calm     100% 0.00 in 0 W/m2
02:29 71.3 °F 71.3 °F 30.06 in Calm     100% 0.00 in 0 W/m2
02:34 71.1 °F 71.1 °F 30.06 in Calm     100% 0.00 in 0 W/m2
02:39 71.1 °F 71.1 °F 30.06 in Calm     100% 0.00 in 0 W/m2
02:44 71 °F 71 °F 30.06 in Calm     100% 0.00 in 0 W/m2
02:49 70.9 °F 70.9 °F 30.06 in Calm     100% 0.00 in 0 W/m2
02:54 70.8 °F 70.8 °F 30.06 in Calm     100% 0.00 in 0 W/m2
02:59 70.6 °F 70.6 °F 30.06 in Calm     100% 0.00 in 0 W/m2
03:04 70.4 °F 70.4 °F 30.06 in Calm     100% 0.00 in 0 W/m2
03:09 70.3 °F 70.3 °F 30.06 in Calm     100% 0.00 in 0 W/m2
03:14 70.3 °F 70.3 °F 30.06 in Calm     100% 0.00 in 0 W/m2
03:19 70.3 °F 70.3 °F 30.06 in Calm     100% 0.00 in 0 W/m2
03:24 70.3 °F 70.3 °F 30.06 in Calm     100% 0.00 in 0 W/m2
03:29 70.3 °F 70.3 °F 30.06 in Calm     100% 0.00 in 0 W/m2
03:34 70.5 °F 70.5 °F 30.06 in Calm     100% 0.00 in 0 W/m2
03:39 70.4 °F 70.4 °F 30.06 in Calm     100% 0.00 in 0 W/m2
03:44 70.4 °F 70.4 °F 30.07 in Calm     100% 0.00 in 0 W/m2
03:49 70.3 °F 70.3 °F 30.07 in Calm     100% 0.00 in 0 W/m2
03:54 70.3 °F 70.3 °F 30.07 in Calm     100% 0.00 in 0 W/m2
03:59 70.3 °F 70.3 °F 30.07 in Calm     100% 0.00 in 0 W/m2
04:04 70.3 °F 70.3 °F 30.07 in Calm     100% 0.00 in 0 W/m2
04:09 70.3 °F 70.3 °F 30.07 in Calm     100% 0.00 in 0 W/m2
04:14 70.1 °F 70.1 °F 30.07 in Calm     100% 0.00 in 0 W/m2
04:19 70.1 °F 70.1 °F 30.07 in Calm     100% 0.00 in 0 W/m2
04:24 69.9 °F 69.9 °F 30.07 in Calm     100% 0.00 in 0 W/m2
04:29 69.9 °F 69.9 °F 30.07 in Calm     100% 0.00 in 0 W/m2
04:34 69.8 °F 69.8 °F 30.07 in Calm     100% 0.00 in 0 W/m2
04:39 69.8 °F 69.8 °F 30.07 in Calm     100% 0.00 in 0 W/m2
04:44 69.9 °F 69.9 °F 30.07 in Calm     100% 0.00 in 0 W/m2
04:49 70.1 °F 70.1 °F 30.07 in Calm     100% 0.00 in 0 W/m2
04:54 70.1 °F 70.1 °F 30.07 in Calm     100% 0.00 in 0 W/m2
04:59 70.3 °F 70.3 °F 30.08 in Calm     100% 0.00 in 0 W/m2
05:04 70.3 °F 70.3 °F 30.08 in Calm     100% 0.00 in 5 W/m2
05:09 70.3 °F 70.3 °F 30.08 in Calm     100% 0.00 in 5 W/m2
05:14 70.3 °F 70.3 °F 30.08 in Calm     100% 0.00 in 7 W/m2
05:19 70.3 °F 70.3 °F 30.08 in Calm     100% 0.00 in 7 W/m2
05:24 70.3 °F 70.3 °F 30.08 in Calm     100% 0.00 in 11 W/m2
05:29 70.3 °F 70.3 °F 30.09 in Calm     100% 0.00 in 12 W/m2
05:34 70.3 °F 70.3 °F 30.09 in Calm     100% 0.00 in 14 W/m2
05:39 70.3 °F 70.3 °F 30.09 in Calm     100% 0.00 in 16 W/m2
05:44 70.4 °F 70.4 °F 30.09 in Calm     100% 0.00 in 19 W/m2
05:49 70.6 °F 70.6 °F 30.09 in Calm     100% 0.00 in 23 W/m2
05:54 70.8 °F 70.8 °F 30.09 in Calm     100% 0.00 in 26 W/m2
05:59 70.8 °F 70.8 °F 30.09 in Calm     100% 0.00 in 30 W/m2
06:04 71 °F 71 °F 30.09 in Calm     100% 0.00 in 33 W/m2
06:09 71.4 °F 71.4 °F 30.09 in Calm     100% 0.00 in 48 W/m2
06:14 71.5 °F 71.5 °F 30.09 in Calm     100% 0.00 in 46 W/m2
06:19 71.6 °F 71.6 °F 30.09 in Calm     100% 0.00 in 49 W/m2
06:24 71.8 °F 71.8 °F 30.09 in Calm     100% 0.00 in 49 W/m2
06:29 71.8 °F 71.8 °F 30.09 in Calm     100% 0.00 in 51 W/m2
06:34 72 °F 72 °F 30.09 in Calm     100% 0.00 in 55 W/m2
06:39 72 °F 72 °F 30.09 in Calm     100% 0.00 in 56 W/m2
06:44 72 °F 72 °F 30.09 in Calm     100% 0.00 in 74 W/m2
06:49 72.1 °F 72.1 °F 30.09 in Calm     100% 0.00 in 100 W/m2
06:54 72.1 °F 72.1 °F 30.09 in Calm     100% 0.00 in 114 W/m2
06:59 72.3 °F 72.3 °F 30.09 in Calm     100% 0.00 in 123 W/m2
07:04 72.3 °F 72.3 °F 30.09 in Calm     100% 0.00 in 116 W/m2
07:09 72.5 °F 72.5 °F 30.09 in Calm     100% 0.00 in 146 W/m2
07:14 72.8 °F 72.8 °F 30.09 in Calm     100% 0.00 in 185 W/m2
07:19 73.1 °F 73.1 °F 30.09 in Calm     100% 0.00 in 227 W/m2
07:24 73.5 °F 73.5 °F 30.09 in Calm     100% 0.00 in 276 W/m2
07:29 74 °F 74 °F 30.09 in Calm     100% 0.00 in 234 W/m2
07:34 73.9 °F 74 °F 30.08 in Calm     100% 0.00 in 223 W/m2
07:39 74.1 °F 74.1 °F 30.08 in Calm     100% 0.00 in 384 W/m2
07:44 74.4 °F 74.4 °F 30.08 in Calm     100% 0.00 in 399 W/m2
07:49 74.5 °F 74.5 °F 30.08 in Calm     100% 0.00 in 415 W/m2
07:54 75.1 °F 75.1 °F 30.08 in Calm     100% 0.00 in 429 W/m2
07:59 75.8 °F 75.8 °F 30.08 in SSW 0.1 mph 3 mph 100% 0.00 in 447 W/m2
08:04 76.2 °F 76.2 °F 30.08 in SSW 2.5 mph 5 mph 100% 0.00 in 463 W/m2
08:09 76.3 °F 76.4 °F 30.08 in SSW 2.4 mph 6 mph 100% 0.00 in 479 W/m2
08:14 76.7 °F 76.7 °F 30.08 in SSW 2.6 mph 5 mph 100% 0.00 in 493 W/m2
08:19 76.9 °F 76.9 °F 30.08 in SSW 1.3 mph 5 mph 100% 0.00 in 514 W/m2
08:24 77.3 °F 77.4 °F 30.08 in SSW 1.2 mph 3 mph 100% 0.00 in 516 W/m2
08:29 77.9 °F 77.7 °F 30.08 in SSW 1.8 mph 5 mph 99.1% 0.00 in 538 W/m2
08:34 78.3 °F 77.4 °F 30.08 in SSW 1.9 mph 6 mph 97.1% 0.00 in 547 W/m2
08:39 78.8 °F 77.5 °F 30.08 in SW 1.6 mph 4 mph 95.8% 0.00 in 565 W/m2
08:42 79.1 °F 77.3 °F 30.08 in SW 0.2 mph 2 mph 94.2% 0.00 in 575 W/m2
08:54 81 °F 77.4 °F 30.08 in SSE 0.9 mph 2 mph 88.7% 0.00 in 679 W/m2
08:59 81.3 °F 76.6 °F 30.08 in WNW 0.6 mph 2 mph 85.6% 0.00 in 679 W/m2
09:04 81.8 °F 76.5 °F 30.08 in SW 1.6 mph 6 mph 84.2% 0.00 in 739 W/m2
09:09 82 °F 75.3 °F 30.08 in SSW 2.4 mph 6 mph 80.3% 0.00 in 743 W/m2
09:14 82.1 °F 74.6 °F 30.08 in SSW 1.7 mph 7 mph 77.9% 0.00 in 779 W/m2
09:19 82.6 °F 74.9 °F 30.08 in SSE 0.8 mph 3 mph 77.7% 0.00 in 199 W/m2
09:24 82.9 °F 74.3 °F 30.08 in South 0.7 mph 3 mph 75.2% 0.00 in 227 W/m2
09:29 83.3 °F 74.9 °F 30.08 in SW 0.1 mph 3 mph 75.7% 0.00 in 852 W/m2
09:34 83.7 °F 75.1 °F 30.07 in Calm     75.5% 0.00 in 852 W/m2
09:39 83.9 °F 75.1 °F 30.07 in SSW 0.5 mph 2 mph 75% 0.00 in 852 W/m2
09:44 84 °F 75.1 °F 30.07 in South 0.6 mph 3 mph 74.7% 0.00 in 850 W/m2
09:49 84.2 °F 74.2 °F 30.07 in SSE 1.6 mph 3 mph 72.1% 0.00 in 850 W/m2
09:54 84.5 °F 73.8 °F 30.07 in SSE 1.7 mph 5 mph 70.4% 0.00 in 829 W/m2
09:59 84.8 °F 73.4 °F 30.07 in SW 0.8 mph 6 mph 68.8% 0.00 in 836 W/m2
10:04 85.1 °F 72.2 °F 30.07 in NW 1.8 mph 8 mph 65.5% 0.00 in 882 W/m2
10:09 85.3 °F 72 °F 30.07 in SSW 1.2 mph 8 mph 64.5% 0.00 in 889 W/m2
10:14 85.7 °F 72.5 °F 30.07 in SW 0.7 mph 5 mph 64.8% 0.00 in 910 W/m2
10:19 86 °F 72 °F 30.07 in NW 0.7 mph 3 mph 63.1% 0.00 in 911 W/m2
10:24 86.4 °F 71.3 °F 30.07 in NNW 0.8 mph 3 mph 60.9% 0.00 in 968 W/m2
10:29 86.9 °F 70.4 °F 30.07 in SW 2 mph 10 mph 58.2% 0.00 in 980 W/m2
10:34 87.2 °F 70.5 °F 30.06 in WSW 1 mph 10 mph 57.8% 0.00 in 941 W/m2
10:39 87.5 °F 70.7 °F 30.06 in WSW 0.9 mph 3 mph 57.6% 0.00 in 1013 W/m2
10:44 87.5 °F 70.1 °F 30.06 in NNW 0.6 mph 3 mph 56.4% 0.00 in 1013 W/m2
10:49 87 °F 70.4 °F 30.06 in ENE 0.7 mph 3 mph 57.9% 0.00 in 964 W/m2
10:54 86.5 °F 69.8 °F 30.06 in SE 1.6 mph 5 mph 57.5% 0.00 in 994 W/m2
10:59 86.7 °F 69.1 °F 30.06 in WNW 0.6 mph 2 mph 56% 0.00 in 994 W/m2
11:04 87 °F 69.4 °F 30.06 in NNW 1.7 mph 6 mph 55.9% 0.00 in 1033 W/m2
11:09 87.1 °F 70.1 °F 30.06 in SSW 1 mph 6 mph 57.2% 0.00 in 954 W/m2
11:14 87.4 °F 69.5 °F 30.06 in SW 1.4 mph 4 mph 55.5% 0.00 in 936 W/m2
11:19 87.7 °F 68.7 °F 30.06 in SSW 1.4 mph 6 mph 53.5% 0.00 in 945 W/m2
11:24 87.9 °F 68.8 °F 30.06 in SSW 1.7 mph 7 mph 53.3% 0.00 in 934 W/m2
11:29 88.1 °F 68.2 °F 30.06 in WNW 0.7 mph 3 mph 51.8% 0.00 in 945 W/m2
11:34 88.6 °F 68.5 °F 30.05 in NNW 1.1 mph 3 mph 51.5% 0.00 in 955 W/m2
11:39 88.7 °F 67.6 °F 30.05 in NNW 1.8 mph 8 mph 49.9% 0.00 in 957 W/m2
11:44 88.9 °F 67.3 °F 30.05 in NNW 0.9 mph 3 mph 49.1% 0.00 in 962 W/m2
11:49 89.1 °F 66.7 °F 30.05 in WNW 0.9 mph 3 mph 47.6% 0.00 in 962 W/m2
11:54 89.4 °F 66.9 °F 30.05 in NW 1 mph 3 mph 47.6% 0.00 in 982 W/m2
11:59 89.4 °F 66.7 °F 30.05 in North 0.5 mph 3 mph 47.1% 0.00 in 1006 W/m2
12:04 89.8 °F 66.2 °F 30.05 in WNW 1.1 mph 3 mph 45.9% 0.00 in 1013 W/m2
12:09 89.7 °F 66.5 °F 30.05 in SE 1.7 mph 5 mph 46.5% 0.00 in 1013 W/m2
12:14 89.8 °F 66.9 °F 30.05 in ENE 1.1 mph 5 mph 47.1% 0.00 in 992 W/m2
12:19 89.9 °F 66.1 °F 30.05 in NNW 1.1 mph 3 mph 45.6% 0.00 in 996 W/m2
12:24 89.9 °F 67.1 °F 30.05 in SE 1.2 mph 5 mph 47.1% 0.00 in 1005 W/m2
12:29 90 °F 66.3 °F 30.05 in NNW 1.1 mph 3 mph 45.8% 0.00 in 1035 W/m2
12:34 90.2 °F 66 °F 30.04 in NNW 0.8 mph 5 mph 44.9% 0.00 in 1070 W/m2
12:39 90.1 °F 66 °F 30.04 in ENE 1 mph 3 mph 45.1% 0.00 in 1040 W/m2
12:44 90.5 °F 67 °F 30.04 in North 1.4 mph 5 mph 46% 0.00 in 1056 W/m2
12:49 90.7 °F 66.6 °F 30.04 in SE 0.9 mph 7 mph 45.2% 0.00 in 1056 W/m2
12:54 90.8 °F 67 °F 30.04 in NNE 0.7 mph 7 mph 45.6% 0.00 in 1112 W/m2
12:59 91.1 °F 66.9 °F 30.04 in ENE 1.3 mph 3 mph 45.1% 0.00 in 1112 W/m2
13:04 90.6 °F 65.9 °F 30.04 in ESE 1.5 mph 3 mph 44.2% 0.00 in 1068 W/m2
13:09 90.3 °F 66 °F 30.04 in SW 1.4 mph 5 mph 44.8% 0.00 in 1033 W/m2
13:14 90 °F 66.8 °F 30.04 in NNW 0.9 mph 4 mph 46.6% 0.00 in 568 W/m2
13:19 89.7 °F 66.6 °F 30.04 in North 0.8 mph 4 mph 46.6% 0.00 in 568 W/m2
13:24 89.2 °F 67.9 °F 30.04 in NW 0.5 mph 3 mph 49.6% 0.00 in 318 W/m2
13:29 88.9 °F 67.8 °F 30.04 in East 0.8 mph 2 mph 49.8% 0.00 in 318 W/m2
13:34 88.5 °F 68.3 °F 30.04 in WSW 0.5 mph 2 mph 51.2% 0.00 in 218 W/m2
13:39 88.1 °F 67.6 °F 30.04 in South 0.4 mph 2 mph 50.7% 0.00 in 197 W/m2
13:44 88 °F 68.1 °F 30.04 in SW 0.6 mph 2 mph 51.8% 0.00 in 257 W/m2
13:49 88.1 °F 67.1 °F 30.03 in South 1.5 mph 6 mph 50% 0.00 in 1021 W/m2
13:54 88.4 °F 66.9 °F 30.03 in SSW 0.5 mph 6 mph 49.1% 0.00 in 999 W/m2
13:59 89 °F 67.1 °F 30.03 in South 1.4 mph 4 mph 48.5% 0.00 in 1054 W/m2
14:04 89.6 °F 67.4 °F 30.03 in SW 2.1 mph 6 mph 48.2% 0.00 in 1172 W/m2
14:09 89.9 °F 68 °F 30.03 in SW 2 mph 6 mph 48.8% 0.00 in 1172 W/m2
14:14 89.7 °F 66.1 °F 30.03 in NW 1.1 mph 6 mph 45.8% 0.00 in 1077 W/m2
14:19 89.8 °F 67.1 °F 30.03 in West 1 mph 3 mph 47.3% 0.00 in 1077 W/m2
14:24 89.9 °F 67.2 °F 30.03 in NE 1.3 mph 3 mph 47.3% 0.00 in 1068 W/m2
14:29 89.9 °F 67.6 °F 30.03 in East 0.5 mph 2 mph 48% 0.00 in 252 W/m2
14:34 89.6 °F 66.9 °F 30.02 in West 0.8 mph 2 mph 47.3% 0.00 in 303 W/m2
14:39 89.3 °F 67.4 °F 30.02 in WSW 0.6 mph 3 mph 48.6% 0.00 in 287 W/m2
14:44 89.3 °F 67.9 °F 30.02 in WNW 0.6 mph 3 mph 49.4% 0.00 in 222 W/m2
14:49 89.3 °F 67.1 °F 30.02 in NNW 0.8 mph 3 mph 48.2% 0.00 in 123 W/m2
14:54 89.3 °F 67.5 °F 30.02 in SW 1 mph 2 mph 48.7% 0.00 in 120 W/m2
14:59 89.2 °F 67.2 °F 30.02 in NNE 1.4 mph 6 mph 48.4% 0.00 in 150 W/m2
15:04 88.9 °F 66.8 °F 30.02 in West 0.6 mph 6 mph 48.2% 0.00 in 151 W/m2
15:09 88.8 °F 66.9 °F 30.02 in NW 0.6 mph 2 mph 48.5% 0.00 in 276 W/m2
15:14 88.8 °F 67.7 °F 30.02 in ESE 0.4 mph 2 mph 49.9% 0.00 in 271 W/m2
15:19 88.8 °F 68.9 °F 30.01 in WSW 0.5 mph 2 mph 51.9% 0.00 in 271 W/m2
15:24 88.8 °F 68.1 °F 30.01 in NNW 1 mph 3 mph 50.6% 0.00 in 146 W/m2
15:29 88.7 °F 66.7 °F 30.01 in NNW 0.9 mph 3 mph 48.4% 0.00 in 130 W/m2
15:34 88.6 °F 66.7 °F 30.01 in NW 0.2 mph 2 mph 48.5% 0.00 in 172 W/m2
15:39 88.5 °F 67.6 °F 30.01 in East 0.1 mph 2 mph 50.1% 0.00 in 190 W/m2
15:44 88.4 °F 67.3 °F 30.01 in South 1.1 mph 4 mph 49.9% 0.00 in 153 W/m2
15:49 88.4 °F 67.8 °F 30.00 in Calm   2 mph 50.7% 0.00 in 99 W/m2
15:54 88.4 °F 67.8 °F 30.00 in SE 0.1 mph 1 mph 50.7% 0.00 in 91 W/m2
15:59 88.4 °F 67.5 °F 30.00 in NE 0.1 mph 1 mph 50.1% 0.00 in 139 W/m2
16:04 88.4 °F 68.6 °F 29.99 in Calm   1 mph 52% 0.00 in 195 W/m2
16:09 88.4 °F 69.9 °F 29.99 in Calm   1 mph 54.5% 0.00 in 260 W/m2
16:14 88.6 °F 69.5 °F 29.99 in ESE 0.1 mph 2 mph 53.4% 0.00 in 260 W/m2
16:19 88.8 °F 69 °F 29.99 in ESE 0.1 mph 2 mph 52.2% 0.00 in 223 W/m2
16:24 88.8 °F 69.4 °F 29.99 in Calm   1 mph 52.9% 0.00 in 185 W/m2
16:29 88.8 °F 71.5 °F 29.99 in Calm     56.8% 0.00 in 192 W/m2
16:34 88.8 °F 73.3 °F 29.99 in Calm     60.4% 0.00 in 190 W/m2
16:39 88.6 °F 73.2 °F 29.99 in Calm     60.5% 0.00 in 174 W/m2
16:44 88.7 °F 74.9 °F 29.99 in East 0.1 mph 1 mph 63.9% 0.00 in 137 W/m2
16:49 88.5 °F 75.7 °F 29.99 in Calm   1 mph 65.9% 0.00 in 135 W/m2
16:54 88.3 °F 76.2 °F 29.99 in Calm     67.5% 0.00 in 197 W/m2
16:59 88.1 °F 76.7 °F 29.99 in Calm     69.1% 0.00 in 197 W/m2
17:04 88 °F 76.2 °F 29.99 in Calm     68.2% 0.00 in 202 W/m2
17:09 87.8 °F 75.9 °F 29.99 in Calm     67.9% 0.00 in 153 W/m2
17:14 87.8 °F 76.4 °F 29.99 in Calm     69.2% 0.00 in 150 W/m2
17:19 87.5 °F 76.9 °F 29.99 in Calm     70.7% 0.00 in 109 W/m2
17:24 87.1 °F 76.7 °F 29.99 in Calm     71.3% 0.00 in 144 W/m2
17:29 86.5 °F 76.7 °F 29.99 in Calm     72.8% 0.00 in 143 W/m2
17:34 86 °F 76.6 °F 29.98 in Calm     73.6% 0.00 in 58 W/m2
17:39 85.5 °F 76.6 °F 29.98 in Calm     75% 0.00 in 63 W/m2
17:44 84.8 °F 76.3 °F 29.98 in Calm     75.6% 0.00 in 77 W/m2
17:49 84.3 °F 76 °F 29.98 in Calm     76.2% 0.00 in 93 W/m2
17:54 84.1 °F 76.3 °F 29.98 in Calm     77.5% 0.00 in 174 W/m2
17:59 84.1 °F 76.4 °F 29.98 in Calm     77.7% 0.00 in 185 W/m2
18:04 84.1 °F 75.4 °F 29.98 in Calm     75.3% 0.00 in 164 W/m2
18:09 84.1 °F 74.9 °F 29.98 in Calm     74.1% 0.00 in 132 W/m2
18:14 84.1 °F 74.9 °F 29.98 in Calm     74% 0.00 in 116 W/m2
18:19 84.1 °F 75.3 °F 29.98 in Calm     75% 0.00 in 83 W/m2
18:24 84.1 °F 75.4 °F 29.98 in Calm     75.3% 0.00 in 63 W/m2
18:29 83.9 °F 75.7 °F 29.98 in Calm     76.4% 0.00 in 44 W/m2
18:34 83.7 °F 76.2 °F 29.98 in Calm     78.3% 0.00 in 40 W/m2
18:39 83.6 °F 76.6 °F 29.98 in Calm     79.5% 0.00 in 42 W/m2
18:44 83.4 °F 76.5 °F 29.98 in Calm     79.9% 0.00 in 53 W/m2
18:49 83.1 °F 76.3 °F 29.98 in Calm     80% 0.00 in 79 W/m2
18:54 82.7 °F 76.2 °F 29.98 in SSW 0.6 mph 2 mph 80.8% 0.00 in 58 W/m2
18:59 82.3 °F 76 °F 29.99 in SW 1.3 mph 4 mph 81.2% 0.00 in 63 W/m2
19:04 82.2 °F 75.5 °F 29.99 in SSW 1.2 mph 5 mph 80.2% 0.00 in 53 W/m2
19:09 82.2 °F 75.4 °F 29.99 in SW 0.4 mph 3 mph 80% 0.00 in 39 W/m2
19:14 82.1 °F 75.2 °F 30.00 in SW 0.9 mph 3 mph 79.9% 0.00 in 39 W/m2
19:19 81.8 °F 74.7 °F 30.00 in WSW 0.7 mph 6 mph 79% 0.00 in 46 W/m2
19:24 81.6 °F 74.1 °F 30.00 in WSW 0.3 mph 1 mph 78.1% 0.00 in 39 W/m2
19:29 81.4 °F 73.8 °F 30.00 in WNW 0.8 mph 3 mph 78% 0.00 in 28 W/m2
19:34 81.1 °F 74 °F 30.00 in NNW 0.2 mph 2 mph 79% 0.00 in 21 W/m2
19:39 81 °F 74.2 °F 30.00 in NW 0.2 mph 1 mph 79.8% 0.00 in 18 W/m2
19:44 80.7 °F 74 °F 30.00 in NW 0.2 mph 1 mph 80.3% 0.00 in 18 W/m2
19:49 80.4 °F 74.1 °F 30.00 in West 0.7 mph 3 mph 81% 0.00 in 16 W/m2
19:54 80.1 °F 74.1 °F 30.00 in SW 0.3 mph 3 mph 81.9% 0.00 in 12 W/m2
19:59 79.9 °F 73.9 °F 30.00 in SW 0.3 mph 2 mph 82% 0.00 in 12 W/m2
20:04 79.7 °F 73.7 °F 30.00 in WNW 0.3 mph 1 mph 82% 0.00 in 12 W/m2
20:09 79.6 °F 73.6 °F 30.00 in Calm   1 mph 82% 0.00 in 11 W/m2
20:14 79.5 °F 73.8 °F 30.00 in Calm   1 mph 82.8% 0.00 in 9 W/m2
20:19 79.4 °F 73.8 °F 30.00 in Calm   1 mph 83.1% 0.00 in 9 W/m2
20:24 79.4 °F 74.2 °F 30.00 in Calm     84.1% 0.00 in 5 W/m2
20:29 79.2 °F 74.4 °F 30.01 in Calm     85.3% 0.00 in 5 W/m2
20:34 79 °F 74.7 °F 30.01 in Calm     86.6% 0.00 in 5 W/m2
20:39 78.7 °F 74.8 °F 30.01 in Calm     88.1% 0.00 in 9 W/m2
20:44 78.4 °F 75.1 °F 30.01 in Calm     89.7% 0.00 in 5 W/m2
20:49 78 °F 75.2 °F 30.01 in Calm     91% 0.00 in 0 W/m2
20:54 77.8 °F 75.3 °F 30.01 in Calm   1 mph 91.9% 0.00 in 0 W/m2
20:59 77.6 °F 75.1 °F 30.01 in Calm   1 mph 92% 0.00 in 0 W/m2
21:04 77.4 °F 75.1 °F 30.01 in Calm     92.7% 0.00 in 0 W/m2
21:09 77.1 °F 75 °F 30.01 in Calm     93% 0.00 in 0 W/m2
21:14 76.9 °F 75 °F 30.01 in Calm     93.8% 0.00 in 0 W/m2
21:19 76.6 °F 74.8 °F 30.00 in Calm     94% 0.00 in 0 W/m2
21:24 76.4 °F 74.6 °F 30.00 in Calm     94.3% 0.00 in 0 W/m2
21:29 76.2 °F 74.6 °F 30.01 in Calm     95% 0.00 in 0 W/m2
21:34 76 °F 74.5 °F 30.01 in Calm     95% 0.00 in 0 W/m2
21:39 75.9 °F 74.4 °F 30.01 in Calm     95% 0.00 in 0 W/m2
21:44 75.7 °F 74.2 °F 30.01 in Calm     95% 0.00 in 0 W/m2
21:49 75.6 °F 74.1 °F 30.01 in Calm     95.1% 0.00 in 0 W/m2
21:54 75.4 °F 74.2 °F 30.01 in Calm     96% 0.00 in 0 W/m2
21:59 75.3 °F 74.1 °F 30.01 in Calm     96% 0.00 in 0 W/m2
22:04 75.1 °F 73.9 °F 30.01 in Calm     96% 0.00 in 0 W/m2
22:09 74.9 °F 73.8 °F 30.01 in Calm     96.3% 0.00 in 0 W/m2
22:14 74.8 °F 73.9 °F 30.01 in Calm     97% 0.00 in 0 W/m2
22:19 74.6 °F 73.7 °F 30.00 in Calm     97% 0.00 in 0 W/m2
22:24 74.6 °F 73.7 °F 30.00 in Calm     97% 0.00 in 0 W/m2
22:29 74.2 °F 73.3 °F 30.00 in Calm     97% 0.00 in 0 W/m2
22:34 74 °F 73.3 °F 30.00 in Calm     97.8% 0.00 in 0 W/m2
22:39 73.9 °F 73.3 °F 30.00 in Calm     98% 0.00 in 0 W/m2
22:44 73.9 °F 73.3 °F 30.00 in Calm     98% 0.00 in 0 W/m2
22:49 73.7 °F 73.1 °F 29.99 in Calm     98% 0.00 in 0 W/m2
22:54 73.6 °F 73 °F 29.99 in WSW 0.2 mph 1 mph 98.1% 0.00 in 0 W/m2
22:59 73.5 °F 73.2 °F 29.99 in Calm   1 mph 99% 0.00 in 0 W/m2
23:04 73.5 °F 73.2 °F 29.99 in Calm     99% 0.00 in 0 W/m2
23:09 73.3 °F 73 °F 29.99 in Calm     99% 0.00 in 0 W/m2
23:14 73.3 °F 73 °F 29.99 in Calm     99% 0.00 in 0 W/m2
23:19 73.2 °F 72.9 °F 29.99 in Calm     99% 0.00 in 0 W/m2
23:24 73.2 °F 72.9 °F 29.99 in Calm     99% 0.00 in 0 W/m2
23:29 73.2 °F 72.9 °F 29.99 in SW 0.8 mph 3 mph 99% 0.00 in 0 W/m2
23:34 73 °F 72.7 °F 29.98 in SW 0.8 mph 2 mph 99% 0.00 in 0 W/m2
23:39 73 °F 72.9 °F 29.98 in Calm   1 mph 99.8% 0.00 in 0 W/m2
23:44 72.8 °F 72.8 °F 29.98 in Calm   1 mph 100% 0.00 in 0 W/m2
23:49 72.8 °F 72.8 °F 29.98 in Calm     100% 0.00 in 0 W/m2
23:50 72.8 °F 72.8 °F 29.98 in Calm     100% 0.00 in 0 W/m2
Lisbon, New Hampshire, USA
Compliments of Weather Underground - 4 mb